sensor_id;sensor_type;location;lat;lon;timestamp;pressure;altitude;pressure_sealevel;temperature
13304;BMP280;6720;51.958;4.540;2023-04-25T00:01:30;100980.03;;;8.34
13304;BMP280;6720;51.958;4.540;2023-04-25T00:03:55;100973.06;;;8.34
13304;BMP280;6720;51.958;4.540;2023-04-25T00:06:22;100978.31;;;8.30
13304;BMP280;6720;51.958;4.540;2023-04-25T00:08:52;100982.69;;;8.28
13304;BMP280;6720;51.958;4.540;2023-04-25T00:11:17;100976.59;;;8.26
13304;BMP280;6720;51.958;4.540;2023-04-25T00:13:42;100980.09;;;8.23
13304;BMP280;6720;51.958;4.540;2023-04-25T00:16:08;100987.91;;;8.19
13304;BMP280;6720;51.958;4.540;2023-04-25T00:18:34;100976.63;;;8.15
13304;BMP280;6720;51.958;4.540;2023-04-25T00:20:59;100980.97;;;8.16
13304;BMP280;6720;51.958;4.540;2023-04-25T00:23:25;100985.28;;;8.19
13304;BMP280;6720;51.958;4.540;2023-04-25T00:25:51;100985.34;;;8.13
13304;BMP280;6720;51.958;4.540;2023-04-25T00:28:16;100980.97;;;8.10
13304;BMP280;6720;51.958;4.540;2023-04-25T00:30:42;100981.88;;;8.06
13304;BMP280;6720;51.958;4.540;2023-04-25T00:33:08;100979.25;;;8.06
13304;BMP280;6720;51.958;4.540;2023-04-25T00:35:34;100987.06;;;8.05
13304;BMP280;6720;51.958;4.540;2023-04-25T00:38:00;100980.16;;;8.01
13304;BMP280;6720;51.958;4.540;2023-04-25T00:40:26;100973.25;;;7.94
13304;BMP280;6720;51.958;4.540;2023-04-25T00:42:52;100982.78;;;7.95
13304;BMP280;6720;51.958;4.540;2023-04-25T00:45:18;100983.69;;;7.91
13304;BMP280;6720;51.958;4.540;2023-04-25T00:47:44;100992.34;;;7.93
13304;BMP280;6720;51.958;4.540;2023-04-25T00:50:11;100990.63;;;7.89
13304;BMP280;6720;51.958;4.540;2023-04-25T00:52:41;100992.38;;;7.87
13304;BMP280;6720;51.958;4.540;2023-04-25T00:55:08;100995.84;;;7.87
13304;BMP280;6720;51.958;4.540;2023-04-25T00:57:34;100994.13;;;7.88
13304;BMP280;6720;51.958;4.540;2023-04-25T01:00:00;101001.06;;;7.89
13304;BMP280;6720;51.958;4.540;2023-04-25T01:02:26;100999.34;;;7.86
13304;BMP280;6720;51.958;4.540;2023-04-25T01:04:52;101002.78;;;7.91
13304;BMP280;6720;51.958;4.540;2023-04-25T01:07:18;100999.34;;;7.88
13304;BMP280;6720;51.958;4.540;2023-04-25T01:09:43;101001.03;;;7.95
13304;BMP280;6720;51.958;4.540;2023-04-25T01:12:09;101011.47;;;7.98
13304;BMP280;6720;51.958;4.540;2023-04-25T01:14:35;101001.00;;;7.99
13304;BMP280;6720;51.958;4.540;2023-04-25T01:17:01;100994.06;;;7.98
13304;BMP280;6720;51.958;4.540;2023-04-25T01:19:26;100999.28;;;8.00
13304;BMP280;6720;51.958;4.540;2023-04-25T01:21:52;101001.00;;;8.04
13304;BMP280;6720;51.958;4.540;2023-04-25T01:24:17;101006.22;;;8.01
13304;BMP280;6720;51.958;4.540;2023-04-25T01:26:43;101014.03;;;8.07
13304;BMP280;6720;51.958;4.540;2023-04-25T01:29:18;101001.88;;;7.98
13304;BMP280;6720;51.958;4.540;2023-04-25T01:31:44;101001.03;;;7.98
13304;BMP280;6720;51.958;4.540;2023-04-25T01:34:10;101019.25;;;8.08
13304;BMP280;6720;51.958;4.540;2023-04-25T01:36:35;101020.13;;;8.06
13304;BMP280;6720;51.958;4.540;2023-04-25T01:39:01;101020.97;;;8.06
13304;BMP280;6720;51.958;4.540;2023-04-25T01:41:27;101009.69;;;8.03
13304;BMP280;6720;51.958;4.540;2023-04-25T01:43:53;101022.69;;;8.10
13304;BMP280;6720;51.958;4.540;2023-04-25T01:46:18;101030.50;;;8.09
13304;BMP280;6720;51.958;4.540;2023-04-25T01:48:44;101020.13;;;8.06
13304;BMP280;6720;51.958;4.540;2023-04-25T01:51:09;101026.19;;;8.05
13304;BMP280;6720;51.958;4.540;2023-04-25T01:53:37;101030.56;;;8.03
13304;BMP280;6720;51.958;4.540;2023-04-25T01:56:02;101029.69;;;8.01
13304;BMP280;6720;51.958;4.540;2023-04-25T01:58:28;101041.84;;;8.03
13304;BMP280;6720;51.958;4.540;2023-04-25T02:00:53;101034.03;;;7.99
13304;BMP280;6720;51.958;4.540;2023-04-25T02:03:19;101039.25;;;7.96
13304;BMP280;6720;51.958;4.540;2023-04-25T02:05:44;101034.06;;;7.96
13304;BMP280;6720;51.958;4.540;2023-04-25T02:08:10;101025.38;;;7.91
13304;BMP280;6720;51.958;4.540;2023-04-25T02:10:36;101026.22;;;7.91
13304;BMP280;6720;51.958;4.540;2023-04-25T02:13:01;101030.56;;;8.00
13304;BMP280;6720;51.958;4.540;2023-04-25T02:15:27;101035.78;;;7.98
13304;BMP280;6720;51.958;4.540;2023-04-25T02:17:53;101031.44;;;7.94
13304;BMP280;6720;51.958;4.540;2023-04-25T02:20:20;101024.50;;;7.95
13304;BMP280;6720;51.958;4.540;2023-04-25T02:22:46;101031.44;;;7.96
13304;BMP280;6720;51.958;4.540;2023-04-25T02:25:12;101043.59;;;8.01
13304;BMP280;6720;51.958;4.540;2023-04-25T02:27:38;101041.84;;;8.03
13304;BMP280;6720;51.958;4.540;2023-04-25T02:30:04;101053.13;;;8.01
13304;BMP280;6720;51.958;4.540;2023-04-25T02:32:30;101056.66;;;7.82
13304;BMP280;6720;51.958;4.540;2023-04-25T02:34:55;101064.50;;;7.83
13304;BMP280;6720;51.958;4.540;2023-04-25T02:37:23;101041.94;;;7.70
13304;BMP280;6720;51.958;4.540;2023-04-25T02:39:49;101049.72;;;7.74
13304;BMP280;6720;51.958;4.540;2023-04-25T02:42:14;101048.00;;;7.77
13304;BMP280;6720;51.958;4.540;2023-04-25T02:44:40;101044.50;;;7.82
13304;BMP280;6720;51.958;4.540;2023-04-25T02:47:05;101051.47;;;7.85
13304;BMP280;6720;51.958;4.540;2023-04-25T02:49:31;101048.84;;;7.88
13304;BMP280;6720;51.958;4.540;2023-04-25T02:52:19;101049.72;;;7.87
13304;BMP280;6720;51.958;4.540;2023-04-25T02:55:17;101034.09;;;7.85
13304;BMP280;6720;51.958;4.540;2023-04-25T02:58:13;101039.28;;;7.90
13304;BMP280;6720;51.958;4.540;2023-04-25T03:01:15;101040.16;;;7.87
13304;BMP280;6720;51.958;4.540;2023-04-25T03:03:51;101046.25;;;7.88
13304;BMP280;6720;51.958;4.540;2023-04-25T03:06:39;101044.50;;;7.87
13304;BMP280;6720;51.958;4.540;2023-04-25T03:09:38;101049.72;;;7.87
13304;BMP280;6720;51.958;4.540;2023-04-25T03:12:16;101045.41;;;7.81
13304;BMP280;6720;51.958;4.540;2023-04-25T03:15:08;101037.53;;;7.92
13304;BMP280;6720;51.958;4.540;2023-04-25T03:18:19;101042.75;;;7.92
13304;BMP280;6720;51.958;4.540;2023-04-25T03:20:55;101048.81;;;8.00
13304;BMP280;6720;51.958;4.540;2023-04-25T03:23:20;101039.25;;;7.99
13304;BMP280;6720;51.958;4.540;2023-04-25T03:25:46;101042.72;;;8.01
13304;BMP280;6720;51.958;4.540;2023-04-25T03:28:11;101047.03;;;8.06
13304;BMP280;6720;51.958;4.540;2023-04-25T03:30:37;101040.09;;;8.04
13304;BMP280;6720;51.958;4.540;2023-04-25T03:33:25;101048.75;;;8.12
13304;BMP280;6720;51.958;4.540;2023-04-25T03:36:18;101039.22;;;8.09
13304;BMP280;6720;51.958;4.540;2023-04-25T03:38:57;101051.38;;;8.12
13304;BMP280;6720;51.958;4.540;2023-04-25T03:41:23;101060.94;;;8.10
13304;BMP280;6720;51.958;4.540;2023-04-25T03:43:48;101053.97;;;8.15
13304;BMP280;6720;51.958;4.540;2023-04-25T03:46:13;101050.50;;;8.13
13304;BMP280;6720;51.958;4.540;2023-04-25T03:59:21;101068.72;;;8.19
13304;BMP280;6720;51.958;4.540;2023-04-25T04:01:46;101072.22;;;8.18
13304;BMP280;6720;51.958;4.540;2023-04-25T04:04:12;101068.78;;;8.13
13304;BMP280;6720;51.958;4.540;2023-04-25T04:06:37;101079.16;;;8.19
13304;BMP280;6720;51.958;4.540;2023-04-25T04:09:03;101072.22;;;8.18
13304;BMP280;6720;51.958;4.540;2023-04-25T04:11:28;101082.66;;;8.21
13304;BMP280;6720;51.958;4.540;2023-04-25T04:13:53;101083.50;;;8.20
13304;BMP280;6720;51.958;4.540;2023-04-25T04:16:19;101085.25;;;8.24
13304;BMP280;6720;51.958;4.540;2023-04-25T04:18:45;101084.41;;;8.25
13304;BMP280;6720;51.958;4.540;2023-04-25T04:21:10;101077.44;;;8.24
13304;BMP280;6720;51.958;4.540;2023-04-25T04:23:36;101082.66;;;8.21
13304;BMP280;6720;51.958;4.540;2023-04-25T04:26:02;101081.78;;;8.23
13304;BMP280;6720;51.958;4.540;2023-04-25T04:28:27;101072.22;;;8.21
13304;BMP280;6720;51.958;4.540;2023-04-25T04:30:53;101073.06;;;8.20
13304;BMP280;6720;51.958;4.540;2023-04-25T04:33:18;101087.84;;;8.24
13304;BMP280;6720;51.958;4.540;2023-04-25T04:36:04;101089.63;;;8.22
13304;BMP280;6720;51.958;4.540;2023-04-25T04:39:06;101087.84;;;8.25
13304;BMP280;6720;51.958;4.540;2023-04-25T04:41:44;101093.94;;;8.26
13304;BMP280;6720;51.958;4.540;2023-04-25T04:44:10;101096.56;;;8.26
13304;BMP280;6720;51.958;4.540;2023-04-25T04:46:35;101089.63;;;8.26
13304;BMP280;6720;51.958;4.540;2023-04-25T04:49:36;101104.38;;;8.29
13304;BMP280;6720;51.958;4.540;2023-04-25T04:52:14;101092.22;;;8.28
13304;BMP280;6720;51.958;4.540;2023-04-25T04:54:40;101097.41;;;8.29
13304;BMP280;6720;51.958;4.540;2023-04-25T04:57:05;101105.22;;;8.31
13304;BMP280;6720;51.958;4.540;2023-04-25T04:59:31;101113.94;;;8.34
13304;BMP280;6720;51.958;4.540;2023-04-25T05:01:56;101121.75;;;8.36
13304;BMP280;6720;51.958;4.540;2023-04-25T05:04:22;101127.84;;;8.32
13304;BMP280;6720;51.958;4.540;2023-04-25T05:06:47;101129.59;;;8.27
13304;BMP280;6720;51.958;4.540;2023-04-25T05:09:13;101133.06;;;8.29
13304;BMP280;6720;51.958;4.540;2023-04-25T05:11:38;101138.28;;;8.32
13304;BMP280;6720;51.958;4.540;2023-04-25T05:14:04;101143.47;;;8.38
13304;BMP280;6720;51.958;4.540;2023-04-25T05:16:29;101141.72;;;8.40
13304;BMP280;6720;51.958;4.540;2023-04-25T05:18:55;101148.66;;;8.47
13304;BMP280;6720;51.958;4.540;2023-04-25T05:21:20;101154.72;;;8.46
13304;BMP280;6720;51.958;4.540;2023-04-25T05:23:46;101159.09;;;8.47
13304;BMP280;6720;51.958;4.540;2023-04-25T05:26:11;101147.78;;;8.39
13304;BMP280;6720;51.958;4.540;2023-04-25T05:28:40;101162.56;;;8.46
13304;BMP280;6720;51.958;4.540;2023-04-25T05:31:06;101171.25;;;8.48
13304;BMP280;6720;51.958;4.540;2023-04-25T05:33:32;101169.53;;;8.45
13304;BMP280;6720;51.958;4.540;2023-04-25T05:35:57;101161.69;;;8.48
13304;BMP280;6720;51.958;4.540;2023-04-25T05:38:23;101169.50;;;8.54
13304;BMP280;6720;51.958;4.540;2023-04-25T05:40:48;101174.72;;;8.56
13304;BMP280;6720;51.958;4.540;2023-04-25T05:43:13;101180.81;;;8.53
13304;BMP280;6720;51.958;4.540;2023-04-25T05:45:39;101177.31;;;8.60
13304;BMP280;6720;51.958;4.540;2023-04-25T05:48:05;101188.59;;;8.64
13304;BMP280;6720;51.958;4.540;2023-04-25T05:50:30;101197.31;;;8.66
13304;BMP280;6720;51.958;4.540;2023-04-25T05:52:56;101188.59;;;8.62
13304;BMP280;6720;51.958;4.540;2023-04-25T05:55:22;101206.03;;;8.62
13304;BMP280;6720;51.958;4.540;2023-04-25T05:57:47;101207.75;;;8.63
13304;BMP280;6720;51.958;4.540;2023-04-25T06:00:13;101206.03;;;8.62
13304;BMP280;6720;51.958;4.540;2023-04-25T06:02:40;101209.50;;;8.58
13304;BMP280;6720;51.958;4.540;2023-04-25T06:05:06;101203.38;;;8.65
13304;BMP280;6720;51.958;4.540;2023-04-25T06:07:31;101222.50;;;8.71
13304;BMP280;6720;51.958;4.540;2023-04-25T06:09:57;101229.41;;;8.81
13304;BMP280;6720;51.958;4.540;2023-04-25T06:12:22;101228.63;;;8.66
13304;BMP280;6720;51.958;4.540;2023-04-25T06:14:48;101234.69;;;8.75
13304;BMP280;6720;51.958;4.540;2023-04-25T06:17:14;101240.75;;;8.73
13304;BMP280;6720;51.958;4.540;2023-04-25T06:19:39;101242.50;;;8.71
13304;BMP280;6720;51.958;4.540;2023-04-25T06:22:06;101231.19;;;8.70
13304;BMP280;6720;51.958;4.540;2023-04-25T06:24:33;101233.81;;;8.69
13304;BMP280;6720;51.958;4.540;2023-04-25T06:26:58;101246.03;;;8.55
13304;BMP280;6720;51.958;4.540;2023-04-25T06:29:24;101240.78;;;8.67
13304;BMP280;6720;51.958;4.540;2023-04-25T06:31:49;101240.81;;;8.55
13304;BMP280;6720;51.958;4.540;2023-04-25T06:34:15;101247.78;;;8.56
13304;BMP280;6720;51.958;4.540;2023-04-25T06:36:40;101243.44;;;8.56
13304;BMP280;6720;51.958;4.540;2023-04-25T06:39:07;101245.16;;;8.62
13304;BMP280;6720;51.958;4.540;2023-04-25T06:41:52;101244.25;;;8.69
13304;BMP280;6720;51.958;4.540;2023-04-25T06:44:26;101243.34;;;8.73
13304;BMP280;6720;51.958;4.540;2023-04-25T06:46:54;101251.19;;;8.79
13304;BMP280;6720;51.958;4.540;2023-04-25T06:49:20;101253.78;;;8.85
13304;BMP280;6720;51.958;4.540;2023-04-25T06:51:46;101254.63;;;8.90
13304;BMP280;6720;51.958;4.540;2023-04-25T06:54:13;101264.19;;;8.95
13304;BMP280;6720;51.958;4.540;2023-04-25T06:56:38;101259.84;;;8.97
13304;BMP280;6720;51.958;4.540;2023-04-25T06:59:04;101268.47;;;9.10
13304;BMP280;6720;51.958;4.540;2023-04-25T07:01:29;101271.94;;;9.15
13304;BMP280;6720;51.958;4.540;2023-04-25T07:03:55;101263.22;;;9.19
13304;BMP280;6720;51.958;4.540;2023-04-25T07:06:20;101268.41;;;9.25
13304;BMP280;6720;51.958;4.540;2023-04-25T07:08:46;101264.06;;;9.30
13304;BMP280;6720;51.958;4.540;2023-04-25T07:11:11;101270.13;;;9.32
13304;BMP280;6720;51.958;4.540;2023-04-25T07:13:37;101274.44;;;9.34
13304;BMP280;6720;51.958;4.540;2023-04-25T07:16:02;101285.78;;;9.38
13304;BMP280;6720;51.958;4.540;2023-04-25T07:18:43;101285.72;;;9.47
13304;BMP280;6720;51.958;4.540;2023-04-25T07:21:09;101278.69;;;9.58
13304;BMP280;6720;51.958;4.540;2023-04-25T07:23:34;101276.94;;;9.60
13304;BMP280;6720;51.958;4.540;2023-04-25T07:26:00;101285.59;;;9.68
13304;BMP280;6720;51.958;4.540;2023-04-25T07:28:25;101288.22;;;9.65
13304;BMP280;6720;51.958;4.540;2023-04-25T07:30:50;101292.56;;;9.72
13304;BMP280;6720;51.958;4.540;2023-04-25T07:33:16;101303.81;;;9.78
13304;BMP280;6720;51.958;4.540;2023-04-25T07:35:42;101296.78;;;9.91
13304;BMP280;6720;51.958;4.540;2023-04-25T07:38:07;101305.41;;;10.06
13304;BMP280;6720;51.958;4.540;2023-04-25T07:40:33;101288.72;;;10.24
13304;BMP280;6720;51.958;4.540;2023-04-25T07:42:59;101293.75;;;10.42
13304;BMP280;6720;51.958;4.540;2023-04-25T07:45:24;101295.44;;;10.49
13304;BMP280;6720;51.958;4.540;2023-04-25T07:47:50;101287.56;;;10.53
13304;BMP280;6720;51.958;4.540;2023-04-25T07:50:18;101288.44;;;10.52
13304;BMP280;6720;51.958;4.540;2023-04-25T07:52:44;101287.53;;;10.56
13304;BMP280;6720;51.958;4.540;2023-04-25T07:55:09;101302.19;;;10.74
13304;BMP280;6720;51.958;4.540;2023-04-25T07:57:35;101301.38;;;10.67
13304;BMP280;6720;51.958;4.540;2023-04-25T08:00:00;101316.31;;;10.58
13304;BMP280;6720;51.958;4.540;2023-04-25T08:02:26;101312.06;;;10.46
13304;BMP280;6720;51.958;4.540;2023-04-25T08:04:53;101318.03;;;10.62
13304;BMP280;6720;51.958;4.540;2023-04-25T08:07:18;101316.84;;;10.90
13304;BMP280;6720;51.958;4.540;2023-04-25T08:09:48;101320.16;;;11.08
13304;BMP280;6720;51.958;4.540;2023-04-25T08:12:14;101328.13;;;10.95
13304;BMP280;6720;51.958;4.540;2023-04-25T08:14:39;101338.72;;;10.86
13304;BMP280;6720;51.958;4.540;2023-04-25T08:17:05;101345.78;;;10.78
13304;BMP280;6720;51.958;4.540;2023-04-25T08:19:31;101342.44;;;10.64
13304;BMP280;6720;51.958;4.540;2023-04-25T08:21:56;101345.91;;;10.66
13304;BMP280;6720;51.958;4.540;2023-04-25T08:24:22;101352.97;;;10.58
13304;BMP280;6720;51.958;4.540;2023-04-25T08:26:48;101365.25;;;10.50
13304;BMP280;6720;51.958;4.540;2023-04-25T08:29:14;101367.09;;;10.39
13304;BMP280;6720;51.958;4.540;2023-04-25T08:31:40;101368.81;;;10.40
13304;BMP280;6720;51.958;4.540;2023-04-25T08:34:06;101374.94;;;10.39
13304;BMP280;6720;51.958;4.540;2023-04-25T08:36:31;101371.41;;;10.44
13304;BMP280;6720;51.958;4.540;2023-04-25T08:38:58;101384.41;;;10.58
13304;BMP280;6720;51.958;4.540;2023-04-25T08:41:24;101387.78;;;10.69
13304;BMP280;6720;51.958;4.540;2023-04-25T08:43:51;101377.19;;;10.81
13304;BMP280;6720;51.958;4.540;2023-04-25T08:46:19;101384.00;;;11.00
13304;BMP280;6720;51.958;4.540;2023-04-25T08:48:46;101382.81;;;11.26
13304;BMP280;6720;51.958;4.540;2023-04-25T08:51:22;101390.50;;;11.43
13304;BMP280;6720;51.958;4.540;2023-04-25T08:53:51;101394.22;;;11.24
13304;BMP280;6720;51.958;4.540;2023-04-25T08:56:18;101406.50;;;11.19
13304;BMP280;6720;51.958;4.540;2023-04-25T08:58:48;101418.69;;;11.23
13304;BMP280;6720;51.958;4.540;2023-04-25T09:01:13;101420.25;;;11.39
13304;BMP280;6720;51.958;4.540;2023-04-25T09:03:39;101417.47;;;11.53
13304;BMP280;6720;51.958;4.540;2023-04-25T09:06:05;101417.41;;;11.60
13304;BMP280;6720;51.958;4.540;2023-04-25T09:08:31;101422.66;;;11.60
13304;BMP280;6720;51.958;4.540;2023-04-25T09:10:58;101424.41;;;11.60
13304;BMP280;6720;51.958;4.540;2023-04-25T09:13:28;101433.34;;;11.42
13304;BMP280;6720;51.958;4.540;2023-04-25T09:15:56;101427.91;;;11.63
13304;BMP280;6720;51.958;4.540;2023-04-25T09:18:29;101437.16;;;11.91
13304;BMP280;6720;51.958;4.540;2023-04-25T09:20:58;101429.84;;;12.14
13304;BMP280;6720;51.958;4.540;2023-04-25T09:23:24;101429.59;;;12.32
13304;BMP280;6720;51.958;4.540;2023-04-25T09:25:52;101438.41;;;12.28
13304;BMP280;6720;51.958;4.540;2023-04-25T09:28:26;101440.38;;;12.11
13304;BMP280;6720;51.958;4.540;2023-04-25T09:30:56;101444.28;;;11.80
13304;BMP280;6720;51.958;4.540;2023-04-25T09:33:29;101435.03;;;11.48
13304;BMP280;6720;51.958;4.540;2023-04-25T09:36:01;101456.66;;;11.69
13304;BMP280;6720;51.958;4.540;2023-04-25T09:38:30;101453.09;;;12.40
13304;BMP280;6720;51.958;4.540;2023-04-25T09:40:56;101449.50;;;13.01
13304;BMP280;6720;51.958;4.540;2023-04-25T09:43:23;101440.72;;;13.02
13304;BMP280;6720;51.958;4.540;2023-04-25T09:45:50;101458.34;;;13.46
13304;BMP280;6720;51.958;4.540;2023-04-25T09:48:24;101434.38;;;13.14
13304;BMP280;6720;51.958;4.540;2023-04-25T09:51:09;101458.31;;;12.99
13304;BMP280;6720;51.958;4.540;2023-04-25T09:53:37;101461.19;;;12.82
13304;BMP280;6720;51.958;4.540;2023-04-25T09:56:05;101455.84;;;12.88
13304;BMP280;6720;51.958;4.540;2023-04-25T09:58:32;101465.69;;;12.76
13304;BMP280;6720;51.958;4.540;2023-04-25T10:01:00;101462.28;;;12.69
13304;BMP280;6720;51.958;4.540;2023-04-25T10:03:29;101471.00;;;12.71
13304;BMP280;6720;51.958;4.540;2023-04-25T10:05:58;101443.91;;;12.68
13304;BMP280;6720;51.958;4.540;2023-04-25T10:08:25;101470.19;;;13.22
13304;BMP280;6720;51.958;4.540;2023-04-25T10:10:52;101470.19;;;13.22
13304;BMP280;6720;51.958;4.540;2023-04-25T10:13:18;101472.94;;;13.13
13304;BMP280;6720;51.958;4.540;2023-04-25T10:15:44;101481.34;;;12.82
13304;BMP280;6720;51.958;4.540;2023-04-25T10:18:11;101488.69;;;12.60
13304;BMP280;6720;51.958;4.540;2023-04-25T10:20:36;101490.97;;;12.22
13304;BMP280;6720;51.958;4.540;2023-04-25T10:23:13;101484.16;;;12.09
13304;BMP280;6720;51.958;4.540;2023-04-25T10:25:39;101492.59;;;12.32
13304;BMP280;6720;51.958;4.540;2023-04-25T10:28:05;101488.75;;;13.12
13304;BMP280;6720;51.958;4.540;2023-04-25T10:30:32;101488.41;;;13.78
13304;BMP280;6720;51.958;4.540;2023-04-25T10:32:59;101504.06;;;13.39
13304;BMP280;6720;51.958;4.540;2023-04-25T10:35:29;101505.44;;;13.09
13304;BMP280;6720;51.958;4.540;2023-04-25T10:38:00;101510.00;;;12.39
13304;BMP280;6720;51.958;4.540;2023-04-25T10:40:26;101500.72;;;12.14
13304;BMP280;6720;51.958;4.540;2023-04-25T10:42:55;101508.72;;;12.05
13304;BMP280;6720;51.958;4.540;2023-04-25T10:45:21;101498.28;;;11.99
13304;BMP280;6720;51.958;4.540;2023-04-25T10:47:46;101506.63;;;12.31
13304;BMP280;6720;51.958;4.540;2023-04-25T10:50:14;101498.75;;;12.87
13304;BMP280;6720;51.958;4.540;2023-04-25T10:52:41;101491.47;;;13.54
13304;BMP280;6720;51.958;4.540;2023-04-25T10:55:07;101491.91;;;13.77
13304;BMP280;6720;51.958;4.540;2023-04-25T10:57:42;101494.50;;;13.79
13304;BMP280;6720;51.958;4.540;2023-04-25T11:00:13;101485.78;;;14.19
13304;BMP280;6720;51.958;4.540;2023-04-25T11:02:44;101492.56;;;14.32
13304;BMP280;6720;51.958;4.540;2023-04-25T11:05:19;101488.47;;;14.18
13304;BMP280;6720;51.958;4.540;2023-04-25T11:07:50;101505.47;;;14.00
13304;BMP280;6720;51.958;4.540;2023-04-25T11:10:17;101506.81;;;13.31
13304;BMP280;6720;51.958;4.540;2023-04-25T11:12:43;101504.06;;;13.84
13304;BMP280;6720;51.958;4.540;2023-04-25T11:15:10;101502.72;;;14.08
13304;BMP280;6720;51.958;4.540;2023-04-25T11:17:35;101505.03;;;14.62
13304;BMP280;6720;51.958;4.540;2023-04-25T11:20:01;101507.53;;;15.05
13304;BMP280;6720;51.958;4.540;2023-04-25T11:22:27;101512.41;;;15.22
13304;BMP280;6720;51.958;4.540;2023-04-25T11:24:53;101502.38;;;15.36
13304;BMP280;6720;51.958;4.540;2023-04-25T11:27:18;101522.09;;;15.55
13304;BMP280;6720;51.958;4.540;2023-04-25T11:29:44;101519.69;;;15.12
13304;BMP280;6720;51.958;4.540;2023-04-25T11:32:10;101522.19;;;15.17
13304;BMP280;6720;51.958;4.540;2023-04-25T11:34:35;101520.88;;;15.68
13304;BMP280;6720;51.958;4.540;2023-04-25T11:37:01;101524.25;;;16.05
13304;BMP280;6720;51.958;4.540;2023-04-25T11:39:28;101530.56;;;15.99
13304;BMP280;6720;51.958;4.540;2023-04-25T11:41:54;101527.31;;;16.51
13304;BMP280;6720;51.958;4.540;2023-04-25T11:44:20;101529.56;;;16.32
13304;BMP280;6720;51.958;4.540;2023-04-25T11:46:47;101524.88;;;16.13
13304;BMP280;6720;51.958;4.540;2023-04-25T11:49:13;101524.34;;;16.31
13304;BMP280;6720;51.958;4.540;2023-04-25T11:54:05;101531.91;;;15.50
13304;BMP280;6720;51.958;4.540;2023-04-25T11:56:31;101537.41;;;16.35
13304;BMP280;6720;51.958;4.540;2023-04-25T11:59:05;101523.66;;;16.55
13304;BMP280;6720;51.958;4.540;2023-04-25T12:01:35;101530.56;;;16.59
13304;BMP280;6720;51.958;4.540;2023-04-25T12:04:15;101543.44;;;16.69
13304;BMP280;6720;51.958;4.540;2023-04-25T12:06:41;101545.56;;;16.58
13304;BMP280;6720;51.958;4.540;2023-04-25T12:09:08;101533.19;;;16.88
13304;BMP280;6720;51.958;4.540;2023-04-25T12:11:41;101555.81;;;16.96
13304;BMP280;6720;51.958;4.540;2023-04-25T12:14:07;101548.44;;;16.51
13304;BMP280;6720;51.958;4.540;2023-04-25T12:16:43;101558.25;;;15.85
13304;BMP280;6720;51.958;4.540;2023-04-25T12:19:09;101548.59;;;15.84
13304;BMP280;6720;51.958;4.540;2023-04-25T12:21:35;101546.63;;;15.60
13304;BMP280;6720;51.958;4.540;2023-04-25T12:24:14;101547.31;;;15.33
13304;BMP280;6720;51.958;4.540;2023-04-25T12:27:07;101547.44;;;16.24
13304;BMP280;6720;51.958;4.540;2023-04-25T12:29:35;101560.06;;;16.13
13304;BMP280;6720;51.958;4.540;2023-04-25T12:32:01;101569.75;;;16.14
13304;BMP280;6720;51.958;4.540;2023-04-25T12:34:27;101559.69;;;16.86
13304;BMP280;6720;51.958;4.540;2023-04-25T12:36:53;101567.22;;;16.71
13304;BMP280;6720;51.958;4.540;2023-04-25T12:39:20;101562.00;;;16.39
13304;BMP280;6720;51.958;4.540;2023-04-25T12:41:47;101548.66;;;17.00
13304;BMP280;6720;51.958;4.540;2023-04-25T12:44:13;101571.13;;;17.42
13304;BMP280;6720;51.958;4.540;2023-04-25T12:46:39;101573.66;;;17.17
13304;BMP280;6720;51.958;4.540;2023-04-25T12:49:05;101564.19;;;17.36
13304;BMP280;6720;51.958;4.540;2023-04-25T12:51:33;101569.91;;;17.52
13304;BMP280;6720;51.958;4.540;2023-04-25T12:54:02;101564.28;;;17.33
13304;BMP280;6720;51.958;4.540;2023-04-25T12:56:28;101568.31;;;16.91
13304;BMP280;6720;51.958;4.540;2023-04-25T12:58:54;101574.97;;;16.48
13304;BMP280;6720;51.958;4.540;2023-04-25T13:01:20;101570.81;;;16.68
13304;BMP280;6720;51.958;4.540;2023-04-25T13:03:46;101561.66;;;17.33
13304;BMP280;6720;51.958;4.540;2023-04-25T13:06:12;101563.97;;;17.18
13304;BMP280;6720;51.958;4.540;2023-04-25T13:08:38;101572.91;;;17.14
13304;BMP280;6720;51.958;4.540;2023-04-25T13:11:05;101577.22;;;16.31
13304;BMP280;6720;51.958;4.540;2023-04-25T13:13:31;101572.53;;;16.10
13304;BMP280;6720;51.958;4.540;2023-04-25T13:15:57;101583.34;;;16.01
13304;BMP280;6720;51.958;4.540;2023-04-25T13:18:22;101577.25;;;16.60
13304;BMP280;6720;51.958;4.540;2023-04-25T13:20:52;101582.38;;;16.34
13304;BMP280;6720;51.958;4.540;2023-04-25T13:23:17;101583.19;;;15.75
13304;BMP280;6720;51.958;4.540;2023-04-25T13:25:43;101578.72;;;15.43
13304;BMP280;6720;51.958;4.540;2023-04-25T13:28:08;101582.47;;;15.32
13304;BMP280;6720;51.958;4.540;2023-04-25T13:30:33;101593.25;;;15.23
13304;BMP280;6720;51.958;4.540;2023-04-25T13:32:59;101598.00;;;15.09
13304;BMP280;6720;51.958;4.540;2023-04-25T13:35:29;101596.38;;;15.02
13304;BMP280;6720;51.958;4.540;2023-04-25T13:37:55;101588.69;;;15.66
13304;BMP280;6720;51.958;4.540;2023-04-25T13:40:21;101595.22;;;16.17
13304;BMP280;6720;51.958;4.540;2023-04-25T13:42:47;101582.06;;;16.15
13304;BMP280;6720;51.958;4.540;2023-04-25T13:45:12;101587.94;;;16.84
13304;BMP280;6720;51.958;4.540;2023-04-25T13:47:37;101581.84;;;16.53
13304;BMP280;6720;51.958;4.540;2023-04-25T13:50:04;101591.84;;;16.12
13304;BMP280;6720;51.958;4.540;2023-04-25T13:52:33;101596.72;;;16.27
13304;BMP280;6720;51.958;4.540;2023-04-25T13:54:59;101594.94;;;16.26
13304;BMP280;6720;51.958;4.540;2023-04-25T13:57:24;101605.56;;;16.56
13304;BMP280;6720;51.958;4.540;2023-04-25T13:59:50;101607.56;;;16.16
13304;BMP280;6720;51.958;4.540;2023-04-25T14:02:16;101606.75;;;15.81
13304;BMP280;6720;51.958;4.540;2023-04-25T14:04:42;101622.13;;;15.29
13304;BMP280;6720;51.958;4.540;2023-04-25T14:07:07;101605.81;;;15.50
13304;BMP280;6720;51.958;4.540;2023-04-25T14:09:34;101613.94;;;15.76
13304;BMP280;6720;51.958;4.540;2023-04-25T14:12:00;101609.47;;;15.78
13304;BMP280;6720;51.958;4.540;2023-04-25T14:14:27;101605.88;;;16.14
13304;BMP280;6720;51.958;4.540;2023-04-25T14:16:53;101610.00;;;16.54
13304;BMP280;6720;51.958;4.540;2023-04-25T14:19:22;101610.72;;;17.17
13304;BMP280;6720;51.958;4.540;2023-04-25T14:21:48;101610.69;;;16.90
13304;BMP280;6720;51.958;4.540;2023-04-25T14:24:14;101609.59;;;16.97
13304;BMP280;6720;51.958;4.540;2023-04-25T14:26:40;101607.94;;;17.22
13304;BMP280;6720;51.958;4.540;2023-04-25T14:29:06;101613.59;;;16.82
13304;BMP280;6720;51.958;4.540;2023-04-25T14:31:33;101620.31;;;16.01
13304;BMP280;6720;51.958;4.540;2023-04-25T14:33:59;101624.59;;;16.37